sensor_id;sensor_type;location;lat;lon;timestamp;P1;durP1;ratioP1;P2;durP2;ratioP2
18230;SDS011;9240;49.966;21.994;2024-03-08T00:00:43;33.37;;;16.77;;
18230;SDS011;9240;49.966;21.994;2024-03-08T00:03:08;29.73;;;16.10;;
18230;SDS011;9240;49.966;21.994;2024-03-08T00:05:36;33.57;;;17.33;;
18230;SDS011;9240;49.966;21.994;2024-03-08T00:08:01;34.93;;;17.13;;
18230;SDS011;9240;49.966;21.994;2024-03-08T00:10:27;32.57;;;17.17;;
18230;SDS011;9240;49.966;21.994;2024-03-08T00:12:53;32.87;;;16.70;;
18230;SDS011;9240;49.966;21.994;2024-03-08T00:15:18;36.43;;;17.47;;
18230;SDS011;9240;49.966;21.994;2024-03-08T00:17:44;34.03;;;17.77;;
18230;SDS011;9240;49.966;21.994;2024-03-08T00:20:10;35.57;;;17.67;;
18230;SDS011;9240;49.966;21.994;2024-03-08T00:22:37;37.23;;;19.23;;
18230;SDS011;9240;49.966;21.994;2024-03-08T00:25:03;36.27;;;18.33;;
18230;SDS011;9240;49.966;21.994;2024-03-08T00:27:29;32.73;;;17.83;;
18230;SDS011;9240;49.966;21.994;2024-03-08T00:29:55;36.63;;;17.67;;
18230;SDS011;9240;49.966;21.994;2024-03-08T00:32:20;35.87;;;18.83;;
18230;SDS011;9240;49.966;21.994;2024-03-08T00:34:46;36.17;;;17.77;;
18230;SDS011;9240;49.966;21.994;2024-03-08T00:37:11;33.50;;;18.30;;
18230;SDS011;9240;49.966;21.994;2024-03-08T00:39:38;37.23;;;18.50;;
18230;SDS011;9240;49.966;21.994;2024-03-08T00:42:04;36.17;;;17.77;;
18230;SDS011;9240;49.966;21.994;2024-03-08T00:44:29;37.20;;;18.30;;
18230;SDS011;9240;49.966;21.994;2024-03-08T00:46:55;37.23;;;18.87;;
18230;SDS011;9240;49.966;21.994;2024-03-08T00:49:20;38.33;;;18.20;;
18230;SDS011;9240;49.966;21.994;2024-03-08T00:51:46;39.97;;;18.07;;
18230;SDS011;9240;49.966;21.994;2024-03-08T00:54:11;37.77;;;19.03;;
18230;SDS011;9240;49.966;21.994;2024-03-08T00:56:38;34.67;;;18.23;;
18230;SDS011;9240;49.966;21.994;2024-03-08T00:59:03;35.43;;;17.13;;
18230;SDS011;9240;49.966;21.994;2024-03-08T01:01:29;35.70;;;17.93;;
18230;SDS011;9240;49.966;21.994;2024-03-08T01:03:54;36.80;;;17.70;;
18230;SDS011;9240;49.966;21.994;2024-03-08T01:06:20;37.63;;;18.13;;
18230;SDS011;9240;49.966;21.994;2024-03-08T01:08:45;32.63;;;17.30;;
18230;SDS011;9240;49.966;21.994;2024-03-08T01:11:12;35.57;;;18.07;;
18230;SDS011;9240;49.966;21.994;2024-03-08T01:13:39;34.57;;;17.23;;
18230;SDS011;9240;49.966;21.994;2024-03-08T01:16:05;32.70;;;17.60;;
18230;SDS011;9240;49.966;21.994;2024-03-08T01:18:31;36.77;;;17.87;;
18230;SDS011;9240;49.966;21.994;2024-03-08T01:20:56;37.90;;;17.33;;
18230;SDS011;9240;49.966;21.994;2024-03-08T01:23:21;31.40;;;18.07;;
18230;SDS011;9240;49.966;21.994;2024-03-08T01:25:47;31.90;;;17.30;;
18230;SDS011;9240;49.966;21.994;2024-03-08T01:28:12;37.40;;;18.30;;
18230;SDS011;9240;49.966;21.994;2024-03-08T01:30:39;37.03;;;18.00;;
18230;SDS011;9240;49.966;21.994;2024-03-08T01:33:05;35.73;;;18.23;;
18230;SDS011;9240;49.966;21.994;2024-03-08T01:35:30;38.90;;;20.07;;
18230;SDS011;9240;49.966;21.994;2024-03-08T01:37:55;40.47;;;19.17;;
18230;SDS011;9240;49.966;21.994;2024-03-08T01:40:21;40.53;;;19.50;;
18230;SDS011;9240;49.966;21.994;2024-03-08T01:42:46;40.50;;;19.67;;
18230;SDS011;9240;49.966;21.994;2024-03-08T01:45:12;37.50;;;19.37;;
18230;SDS011;9240;49.966;21.994;2024-03-08T01:47:39;40.57;;;20.17;;
18230;SDS011;9240;49.966;21.994;2024-03-08T01:50:05;38.33;;;19.10;;
18230;SDS011;9240;49.966;21.994;2024-03-08T01:52:31;40.37;;;19.23;;
18230;SDS011;9240;49.966;21.994;2024-03-08T01:54:57;39.80;;;19.50;;
18230;SDS011;9240;49.966;21.994;2024-03-08T01:57:24;41.97;;;20.57;;
18230;SDS011;9240;49.966;21.994;2024-03-08T01:59:50;45.97;;;20.83;;
18230;SDS011;9240;49.966;21.994;2024-03-08T02:02:15;42.03;;;20.03;;
18230;SDS011;9240;49.966;21.994;2024-03-08T02:04:44;43.37;;;20.53;;
18230;SDS011;9240;49.966;21.994;2024-03-08T02:07:10;37.17;;;19.33;;
18230;SDS011;9240;49.966;21.994;2024-03-08T02:09:35;47.77;;;20.60;;
18230;SDS011;9240;49.966;21.994;2024-03-08T02:12:01;43.03;;;19.03;;
18230;SDS011;9240;49.966;21.994;2024-03-08T02:14:27;42.67;;;19.73;;
18230;SDS011;9240;49.966;21.994;2024-03-08T02:16:52;37.13;;;19.13;;
18230;SDS011;9240;49.966;21.994;2024-03-08T02:19:17;39.13;;;19.60;;
18230;SDS011;9240;49.966;21.994;2024-03-08T02:21:44;47.57;;;21.17;;
18230;SDS011;9240;49.966;21.994;2024-03-08T02:24:11;40.30;;;19.93;;
18230;SDS011;9240;49.966;21.994;2024-03-08T02:26:36;38.30;;;19.37;;
18230;SDS011;9240;49.966;21.994;2024-03-08T02:29:02;43.37;;;20.23;;
18230;SDS011;9240;49.966;21.994;2024-03-08T02:31:27;42.03;;;20.10;;
18230;SDS011;9240;49.966;21.994;2024-03-08T02:33:53;39.60;;;19.30;;
18230;SDS011;9240;49.966;21.994;2024-03-08T02:36:18;35.33;;;18.53;;
18230;SDS011;9240;49.966;21.994;2024-03-08T02:38:45;38.03;;;19.50;;
18230;SDS011;9240;49.966;21.994;2024-03-08T02:41:11;36.13;;;18.27;;
18230;SDS011;9240;49.966;21.994;2024-03-08T02:43:36;40.80;;;19.70;;
18230;SDS011;9240;49.966;21.994;2024-03-08T02:46:02;40.10;;;18.30;;
18230;SDS011;9240;49.966;21.994;2024-03-08T02:48:27;39.10;;;18.60;;
18230;SDS011;9240;49.966;21.994;2024-03-08T02:50:53;39.37;;;19.37;;
18230;SDS011;9240;49.966;21.994;2024-03-08T02:53:18;37.37;;;18.87;;
18230;SDS011;9240;49.966;21.994;2024-03-08T02:55:45;38.10;;;18.87;;
18230;SDS011;9240;49.966;21.994;2024-03-08T02:58:11;36.50;;;18.77;;
18230;SDS011;9240;49.966;21.994;2024-03-08T03:00:36;39.50;;;19.33;;
18230;SDS011;9240;49.966;21.994;2024-03-08T03:03:03;37.33;;;18.50;;
18230;SDS011;9240;49.966;21.994;2024-03-08T03:05:29;39.63;;;19.80;;
18230;SDS011;9240;49.966;21.994;2024-03-08T03:07:54;37.30;;;18.20;;
18230;SDS011;9240;49.966;21.994;2024-03-08T03:10:20;40.07;;;19.00;;
18230;SDS011;9240;49.966;21.994;2024-03-08T03:12:47;40.97;;;18.30;;
18230;SDS011;9240;49.966;21.994;2024-03-08T03:15:13;40.77;;;18.20;;
18230;SDS011;9240;49.966;21.994;2024-03-08T03:17:39;37.23;;;17.53;;
18230;SDS011;9240;49.966;21.994;2024-03-08T03:20:06;37.90;;;18.67;;
18230;SDS011;9240;49.966;21.994;2024-03-08T03:22:32;42.70;;;18.67;;
18230;SDS011;9240;49.966;21.994;2024-03-08T03:24:57;37.77;;;18.67;;
18230;SDS011;9240;49.966;21.994;2024-03-08T03:27:23;40.57;;;18.87;;
18230;SDS011;9240;49.966;21.994;2024-03-08T03:29:50;42.43;;;18.13;;
18230;SDS011;9240;49.966;21.994;2024-03-08T03:32:15;41.77;;;18.67;;
18230;SDS011;9240;49.966;21.994;2024-03-08T03:34:41;37.87;;;18.40;;
18230;SDS011;9240;49.966;21.994;2024-03-08T03:37:06;36.47;;;17.67;;
18230;SDS011;9240;49.966;21.994;2024-03-08T03:39:32;39.80;;;19.23;;
18230;SDS011;9240;49.966;21.994;2024-03-08T03:41:58;40.13;;;18.93;;
18230;SDS011;9240;49.966;21.994;2024-03-08T03:44:23;37.47;;;18.53;;
18230;SDS011;9240;49.966;21.994;2024-03-08T03:46:50;37.83;;;18.53;;
18230;SDS011;9240;49.966;21.994;2024-03-08T03:49:16;37.67;;;18.43;;
18230;SDS011;9240;49.966;21.994;2024-03-08T03:51:41;40.53;;;19.07;;
18230;SDS011;9240;49.966;21.994;2024-03-08T03:54:07;39.40;;;18.43;;
18230;SDS011;9240;49.966;21.994;2024-03-08T03:56:32;38.40;;;18.87;;
18230;SDS011;9240;49.966;21.994;2024-03-08T03:58:58;38.73;;;18.77;;
18230;SDS011;9240;49.966;21.994;2024-03-08T04:01:23;37.53;;;18.43;;
18230;SDS011;9240;49.966;21.994;2024-03-08T04:03:50;41.03;;;19.37;;
18230;SDS011;9240;49.966;21.994;2024-03-08T04:06:15;38.30;;;19.00;;
18230;SDS011;9240;49.966;21.994;2024-03-08T04:08:41;40.93;;;20.13;;
18230;SDS011;9240;49.966;21.994;2024-03-08T04:11:06;42.87;;;19.33;;
18230;SDS011;9240;49.966;21.994;2024-03-08T04:13:32;42.03;;;19.27;;
18230;SDS011;9240;49.966;21.994;2024-03-08T04:15:57;37.53;;;17.53;;
18230;SDS011;9240;49.966;21.994;2024-03-08T04:18:23;37.90;;;18.67;;
18230;SDS011;9240;49.966;21.994;2024-03-08T04:20:50;39.77;;;19.27;;
18230;SDS011;9240;49.966;21.994;2024-03-08T04:23:15;36.23;;;18.57;;
18230;SDS011;9240;49.966;21.994;2024-03-08T04:25:41;44.47;;;18.83;;
18230;SDS011;9240;49.966;21.994;2024-03-08T04:28:06;39.10;;;18.33;;
18230;SDS011;9240;49.966;21.994;2024-03-08T04:30:32;36.37;;;19.30;;
18230;SDS011;9240;49.966;21.994;2024-03-08T04:32:57;39.77;;;19.37;;
18230;SDS011;9240;49.966;21.994;2024-03-08T04:35:23;40.43;;;19.73;;
18230;SDS011;9240;49.966;21.994;2024-03-08T04:37:49;42.30;;;19.37;;
18230;SDS011;9240;49.966;21.994;2024-03-08T04:40:15;38.73;;;19.30;;
18230;SDS011;9240;49.966;21.994;2024-03-08T04:42:42;41.70;;;19.60;;
18230;SDS011;9240;49.966;21.994;2024-03-08T04:45:08;37.03;;;18.70;;
18230;SDS011;9240;49.966;21.994;2024-03-08T04:47:34;41.50;;;19.43;;
18230;SDS011;9240;49.966;21.994;2024-03-08T04:49:59;41.00;;;18.83;;
18230;SDS011;9240;49.966;21.994;2024-03-08T04:52:25;46.17;;;20.13;;
18230;SDS011;9240;49.966;21.994;2024-03-08T04:54:52;37.13;;;18.60;;
18230;SDS011;9240;49.966;21.994;2024-03-08T04:57:17;39.17;;;19.27;;
18230;SDS011;9240;49.966;21.994;2024-03-08T04:59:43;41.57;;;19.53;;
18230;SDS011;9240;49.966;21.994;2024-03-08T05:02:08;40.80;;;19.93;;
18230;SDS011;9240;49.966;21.994;2024-03-08T05:04:33;45.37;;;19.97;;
18230;SDS011;9240;49.966;21.994;2024-03-08T05:06:59;43.03;;;20.03;;
18230;SDS011;9240;49.966;21.994;2024-03-08T05:09:24;47.40;;;21.23;;
18230;SDS011;9240;49.966;21.994;2024-03-08T05:11:53;46.80;;;19.77;;
18230;SDS011;9240;49.966;21.994;2024-03-08T05:14:18;41.47;;;19.40;;
18230;SDS011;9240;49.966;21.994;2024-03-08T05:16:44;43.90;;;20.67;;
18230;SDS011;9240;49.966;21.994;2024-03-08T05:19:09;43.67;;;20.03;;
18230;SDS011;9240;49.966;21.994;2024-03-08T05:21:35;47.63;;;20.77;;
18230;SDS011;9240;49.966;21.994;2024-03-08T05:24:00;45.60;;;20.50;;
18230;SDS011;9240;49.966;21.994;2024-03-08T05:26:26;43.07;;;20.00;;
18230;SDS011;9240;49.966;21.994;2024-03-08T05:28:52;40.23;;;20.57;;
18230;SDS011;9240;49.966;21.994;2024-03-08T05:31:19;48.47;;;20.53;;
18230;SDS011;9240;49.966;21.994;2024-03-08T05:33:45;44.70;;;20.60;;
18230;SDS011;9240;49.966;21.994;2024-03-08T05:36:10;50.40;;;21.73;;
18230;SDS011;9240;49.966;21.994;2024-03-08T05:38:36;45.47;;;21.97;;
18230;SDS011;9240;49.966;21.994;2024-03-08T05:41:01;50.23;;;21.30;;
18230;SDS011;9240;49.966;21.994;2024-03-08T05:43:27;44.63;;;20.87;;
18230;SDS011;9240;49.966;21.994;2024-03-08T05:45:53;45.33;;;21.10;;
18230;SDS011;9240;49.966;21.994;2024-03-08T05:48:19;44.97;;;19.97;;
18230;SDS011;9240;49.966;21.994;2024-03-08T05:50:45;44.67;;;20.63;;
18230;SDS011;9240;49.966;21.994;2024-03-08T05:53:11;52.37;;;21.93;;
18230;SDS011;9240;49.966;21.994;2024-03-08T05:55:36;45.40;;;20.67;;
18230;SDS011;9240;49.966;21.994;2024-03-08T05:58:02;45.53;;;20.70;;
18230;SDS011;9240;49.966;21.994;2024-03-08T06:00:27;47.57;;;21.27;;
18230;SDS011;9240;49.966;21.994;2024-03-08T06:02:54;45.27;;;20.70;;
18230;SDS011;9240;49.966;21.994;2024-03-08T06:05:20;47.83;;;21.53;;
18230;SDS011;9240;49.966;21.994;2024-03-08T06:07:45;42.47;;;19.87;;
18230;SDS011;9240;49.966;21.994;2024-03-08T06:10:11;49.03;;;21.33;;
18230;SDS011;9240;49.966;21.994;2024-03-08T06:12:37;47.50;;;22.10;;
18230;SDS011;9240;49.966;21.994;2024-03-08T06:15:02;42.47;;;20.63;;
18230;SDS011;9240;49.966;21.994;2024-03-08T06:17:28;48.40;;;22.87;;
18230;SDS011;9240;49.966;21.994;2024-03-08T06:19:55;50.13;;;20.90;;
18230;SDS011;9240;49.966;21.994;2024-03-08T06:22:21;46.67;;;21.43;;
18230;SDS011;9240;49.966;21.994;2024-03-08T06:24:46;43.90;;;20.87;;
18230;SDS011;9240;49.966;21.994;2024-03-08T06:27:12;41.87;;;19.87;;
18230;SDS011;9240;49.966;21.994;2024-03-08T06:29:37;38.30;;;20.10;;
18230;SDS011;9240;49.966;21.994;2024-03-08T06:32:03;43.17;;;20.57;;
18230;SDS011;9240;49.966;21.994;2024-03-08T06:34:29;46.83;;;20.93;;
18230;SDS011;9240;49.966;21.994;2024-03-08T06:36:59;45.83;;;20.27;;
18230;SDS011;9240;49.966;21.994;2024-03-08T06:39:24;42.77;;;20.33;;
18230;SDS011;9240;49.966;21.994;2024-03-08T06:41:51;41.80;;;20.93;;
18230;SDS011;9240;49.966;21.994;2024-03-08T06:44:19;43.00;;;20.83;;
18230;SDS011;9240;49.966;21.994;2024-03-08T06:46:45;42.60;;;20.63;;
18230;SDS011;9240;49.966;21.994;2024-03-08T06:49:11;39.40;;;19.63;;
18230;SDS011;9240;49.966;21.994;2024-03-08T06:51:36;43.70;;;21.27;;
18230;SDS011;9240;49.966;21.994;2024-03-08T06:54:05;47.53;;;24.80;;
18230;SDS011;9240;49.966;21.994;2024-03-08T06:56:31;51.23;;;22.90;;
18230;SDS011;9240;49.966;21.994;2024-03-08T06:58:56;40.90;;;22.77;;
18230;SDS011;9240;49.966;21.994;2024-03-08T07:01:24;44.17;;;21.30;;
18230;SDS011;9240;49.966;21.994;2024-03-08T07:03:51;40.90;;;20.43;;
18230;SDS011;9240;49.966;21.994;2024-03-08T07:06:16;40.10;;;21.27;;
18230;SDS011;9240;49.966;21.994;2024-03-08T07:08:42;41.90;;;21.77;;
18230;SDS011;9240;49.966;21.994;2024-03-08T07:11:10;38.77;;;20.33;;
18230;SDS011;9240;49.966;21.994;2024-03-08T07:13:36;43.90;;;22.60;;
18230;SDS011;9240;49.966;21.994;2024-03-08T07:16:04;45.97;;;22.53;;
18230;SDS011;9240;49.966;21.994;2024-03-08T07:18:31;43.47;;;22.00;;
18230;SDS011;9240;49.966;21.994;2024-03-08T07:20:59;49.70;;;22.37;;
18230;SDS011;9240;49.966;21.994;2024-03-08T07:23:27;38.87;;;20.37;;
18230;SDS011;9240;49.966;21.994;2024-03-08T07:25:53;38.93;;;20.40;;
18230;SDS011;9240;49.966;21.994;2024-03-08T07:28:20;41.67;;;21.00;;
18230;SDS011;9240;49.966;21.994;2024-03-08T07:30:46;44.90;;;20.93;;
18230;SDS011;9240;49.966;21.994;2024-03-08T07:33:15;36.50;;;19.80;;
18230;SDS011;9240;49.966;21.994;2024-03-08T07:35:58;40.67;;;21.00;;
18230;SDS011;9240;49.966;21.994;2024-03-08T07:38:51;37.60;;;19.97;;
18230;SDS011;9240;49.966;21.994;2024-03-08T07:41:24;41.30;;;20.43;;
18230;SDS011;9240;49.966;21.994;2024-03-08T07:44:15;40.13;;;19.67;;
18230;SDS011;9240;49.966;21.994;2024-03-08T09:22:56;28.13;;;14.67;;
18230;SDS011;9240;49.966;21.994;2024-03-08T10:27:32;25.27;;;13.13;;
18230;SDS011;9240;49.966;21.994;2024-03-08T10:29:58;32.23;;;15.63;;
18230;SDS011;9240;49.966;21.994;2024-03-08T10:32:24;23.77;;;13.33;;
18230;SDS011;9240;49.966;21.994;2024-03-08T10:34:58;25.13;;;13.90;;
18230;SDS011;9240;49.966;21.994;2024-03-08T10:37:23;27.67;;;14.47;;
18230;SDS011;9240;49.966;21.994;2024-03-08T10:39:50;24.33;;;13.90;;
18230;SDS011;9240;49.966;21.994;2024-03-08T10:42:27;21.83;;;12.57;;
18230;SDS011;9240;49.966;21.994;2024-03-08T10:44:57;26.07;;;13.83;;
18230;SDS011;9240;49.966;21.994;2024-03-08T10:47:31;20.63;;;12.23;;
18230;SDS011;9240;49.966;21.994;2024-03-08T10:50:05;27.03;;;14.73;;
18230;SDS011;9240;49.966;21.994;2024-03-08T10:52:36;30.87;;;14.37;;
18230;SDS011;9240;49.966;21.994;2024-03-08T10:55:01;26.30;;;14.40;;
18230;SDS011;9240;49.966;21.994;2024-03-08T10:57:27;26.07;;;14.73;;
18230;SDS011;9240;49.966;21.994;2024-03-08T10:59:53;24.90;;;13.83;;
18230;SDS011;9240;49.966;21.994;2024-03-08T11:02:22;27.97;;;14.10;;
18230;SDS011;9240;49.966;21.994;2024-03-08T11:04:48;29.90;;;15.77;;
18230;SDS011;9240;49.966;21.994;2024-03-08T11:07:15;25.63;;;14.23;;
18230;SDS011;9240;49.966;21.994;2024-03-08T11:09:41;27.07;;;14.47;;
18230;SDS011;9240;49.966;21.994;2024-03-08T11:12:22;26.90;;;14.80;;
18230;SDS011;9240;49.966;21.994;2024-03-08T11:14:50;26.87;;;14.57;;
18230;SDS011;9240;49.966;21.994;2024-03-08T11:17:19;25.93;;;14.60;;
18230;SDS011;9240;49.966;21.994;2024-03-08T11:19:46;28.70;;;16.17;;
18230;SDS011;9240;49.966;21.994;2024-03-08T11:22:22;29.10;;;15.07;;
18230;SDS011;9240;49.966;21.994;2024-03-08T11:24:49;25.63;;;14.70;;
18230;SDS011;9240;49.966;21.994;2024-03-08T11:27:14;27.73;;;14.87;;
18230;SDS011;9240;49.966;21.994;2024-03-08T11:29:40;22.97;;;12.87;;
18230;SDS011;9240;49.966;21.994;2024-03-08T11:32:10;22.47;;;12.33;;
18230;SDS011;9240;49.966;21.994;2024-03-08T11:34:39;25.03;;;13.20;;
18230;SDS011;9240;49.966;21.994;2024-03-08T11:37:05;25.30;;;14.80;;
18230;SDS011;9240;49.966;21.994;2024-03-08T11:39:31;24.03;;;13.50;;
18230;SDS011;9240;49.966;21.994;2024-03-08T11:41:57;27.40;;;15.63;;
18230;SDS011;9240;49.966;21.994;2024-03-08T11:44:24;29.13;;;15.50;;
18230;SDS011;9240;49.966;21.994;2024-03-08T11:46:52;26.07;;;14.50;;
18230;SDS011;9240;49.966;21.994;2024-03-08T11:49:17;26.03;;;14.97;;
18230;SDS011;9240;49.966;21.994;2024-03-08T11:51:44;27.33;;;14.43;;
18230;SDS011;9240;49.966;21.994;2024-03-08T11:54:11;26.83;;;15.00;;
18230;SDS011;9240;49.966;21.994;2024-03-08T11:56:37;27.37;;;13.50;;
18230;SDS011;9240;49.966;21.994;2024-03-08T11:59:03;24.90;;;14.40;;
18230;SDS011;9240;49.966;21.994;2024-03-08T12:01:28;28.20;;;14.17;;
18230;SDS011;9240;49.966;21.994;2024-03-08T12:03:54;24.30;;;14.03;;
18230;SDS011;9240;49.966;21.994;2024-03-08T12:06:20;28.07;;;14.13;;
18230;SDS011;9240;49.966;21.994;2024-03-08T12:08:47;26.47;;;14.47;;
18230;SDS011;9240;49.966;21.994;2024-03-08T12:11:12;23.63;;;13.67;;
18230;SDS011;9240;49.966;21.994;2024-03-08T12:13:38;27.10;;;14.77;;
18230;SDS011;9240;49.966;21.994;2024-03-08T12:16:03;23.83;;;14.17;;
18230;SDS011;9240;49.966;21.994;2024-03-08T12:18:32;30.53;;;15.80;;
18230;SDS011;9240;49.966;21.994;2024-03-08T12:21:04;28.63;;;15.70;;
18230;SDS011;9240;49.966;21.994;2024-03-08T12:23:31;40.03;;;19.03;;
18230;SDS011;9240;49.966;21.994;2024-03-08T12:25:58;27.30;;;14.33;;
18230;SDS011;9240;49.966;21.994;2024-03-08T12:28:34;29.53;;;16.37;;
18230;SDS011;9240;49.966;21.994;2024-03-08T12:31:00;35.67;;;18.30;;
18230;SDS011;9240;49.966;21.994;2024-03-08T12:33:25;30.43;;;15.47;;
18230;SDS011;9240;49.966;21.994;2024-03-08T12:35:51;26.70;;;14.53;;
18230;SDS011;9240;49.966;21.994;2024-03-08T12:38:17;26.23;;;14.67;;
18230;SDS011;9240;49.966;21.994;2024-03-08T12:40:42;28.07;;;15.43;;
18230;SDS011;9240;49.966;21.994;2024-03-08T12:43:09;28.43;;;14.20;;
18230;SDS011;9240;49.966;21.994;2024-03-08T12:45:35;27.03;;;15.30;;
18230;SDS011;9240;49.966;21.994;2024-03-08T12:48:00;25.27;;;15.20;;
18230;SDS011;9240;49.966;21.994;2024-03-08T12:50:26;27.10;;;15.13;;
18230;SDS011;9240;49.966;21.994;2024-03-08T12:52:51;28.47;;;14.87;;
18230;SDS011;9240;49.966;21.994;2024-03-08T12:55:17;28.43;;;14.80;;
18230;SDS011;9240;49.966;21.994;2024-03-08T12:57:42;27.80;;;14.50;;
18230;SDS011;9240;49.966;21.994;2024-03-08T13:00:10;25.17;;;14.33;;
18230;SDS011;9240;49.966;21.994;2024-03-08T13:02:36;26.40;;;14.67;;
18230;SDS011;9240;49.966;21.994;2024-03-08T13:05:01;26.93;;;14.87;;
18230;SDS011;9240;49.966;21.994;2024-03-08T13:07:27;27.43;;;14.70;;
18230;SDS011;9240;49.966;21.994;2024-03-08T13:09:53;26.10;;;15.17;;
18230;SDS011;9240;49.966;21.994;2024-03-08T13:12:18;30.97;;;15.83;;
18230;SDS011;9240;49.966;21.994;2024-03-08T13:14:44;29.07;;;15.70;;
18230;SDS011;9240;49.966;21.994;2024-03-08T13:17:11;27.20;;;15.03;;
18230;SDS011;9240;49.966;21.994;2024-03-08T13:19:36;25.30;;;14.23;;
18230;SDS011;9240;49.966;21.994;2024-03-08T13:22:02;26.03;;;14.80;;
18230;SDS011;9240;49.966;21.994;2024-03-08T13:24:27;26.70;;;14.80;;
18230;SDS011;9240;49.966;21.994;2024-03-08T13:26:53;29.57;;;15.43;;
18230;SDS011;9240;49.966;21.994;2024-03-08T13:29:18;25.00;;;14.47;;
18230;SDS011;9240;49.966;21.994;2024-03-08T13:31:44;25.13;;;15.40;;
18230;SDS011;9240;49.966;21.994;2024-03-08T13:34:10;26.30;;;14.83;;
18230;SDS011;9240;49.966;21.994;2024-03-08T13:36:36;23.80;;;13.93;;
18230;SDS011;9240;49.966;21.994;2024-03-08T13:39:01;28.73;;;15.23;;
18230;SDS011;9240;49.966;21.994;2024-03-08T13:41:27;25.00;;;14.20;;
18230;SDS011;9240;49.966;21.994;2024-03-08T13:43:52;26.07;;;14.50;;
18230;SDS011;9240;49.966;21.994;2024-03-08T13:46:18;28.90;;;16.37;;
18230;SDS011;9240;49.966;21.994;2024-03-08T13:48:44;28.57;;;15.37;;
18230;SDS011;9240;49.966;21.994;2024-03-08T13:51:10;27.83;;;14.40;;
18230;SDS011;9240;49.966;21.994;2024-03-08T13:53:36;37.30;;;17.07;;
18230;SDS011;9240;49.966;21.994;2024-03-08T13:56:01;29.23;;;15.57;;
18230;SDS011;9240;49.966;21.994;2024-03-08T13:58:27;28.87;;;15.60;;
18230;SDS011;9240;49.966;21.994;2024-03-08T14:00:53;27.80;;;15.10;;
18230;SDS011;9240;49.966;21.994;2024-03-08T14:03:19;33.87;;;17.77;;
18230;SDS011;9240;49.966;21.994;2024-03-08T14:05:45;30.20;;;15.63;;
18230;SDS011;9240;49.966;21.994;2024-03-08T14:08:12;28.10;;;15.70;;
18230;SDS011;9240;49.966;21.994;2024-03-08T14:10:37;25.57;;;14.23;;
18230;SDS011;9240;49.966;21.994;2024-03-08T14:13:06;27.53;;;15.00;;
18230;SDS011;9240;49.966;21.994;2024-03-08T14:15:32;27.33;;;15.10;;
18230;SDS011;9240;49.966;21.994;2024-03-08T14:17:57;24.50;;;14.97;;
18230;SDS011;9240;49.966;21.994;2024-03-08T14:20:23;30.47;;;15.30;;
18230;SDS011;9240;49.966;21.994;2024-03-08T14:22:49;26.40;;;14.20;;
18230;SDS011;9240;49.966;21.994;2024-03-08T14:25:16;29.97;;;15.73;;
18230;SDS011;9240;49.966;21.994;2024-03-08T14:27:42;28.93;;;15.80;;
18230;SDS011;9240;49.966;21.994;2024-03-08T14:30:08;31.60;;;15.73;;
18230;SDS011;9240;49.966;21.994;2024-03-08T14:32:34;31.47;;;16.00;;
18230;SDS011;9240;49.966;21.994;2024-03-08T14:35:00;26.67;;;15.17;;
18230;SDS011;9240;49.966;21.994;2024-03-08T14:37:25;26.27;;;15.40;;
18230;SDS011;9240;49.966;21.994;2024-03-08T14:39:52;29.10;;;16.20;;
18230;SDS011;9240;49.966;21.994;2024-03-08T14:42:19;30.70;;;17.03;;
18230;SDS011;9240;49.966;21.994;2024-03-08T14:44:44;31.03;;;16.33;;
18230;SDS011;9240;49.966;21.994;2024-03-08T14:47:10;36.27;;;19.70;;
18230;SDS011;9240;49.966;21.994;2024-03-08T14:49:36;30.67;;;16.63;;
18230;SDS011;9240;49.966;21.994;2024-03-08T14:52:01;29.37;;;15.63;;
18230;SDS011;9240;49.966;21.994;2024-03-08T14:54:27;29.27;;;15.63;;
18230;SDS011;9240;49.966;21.994;2024-03-08T14:56:52;27.93;;;15.50;;
18230;SDS011;9240;49.966;21.994;2024-03-08T14:59:19;24.33;;;14.20;;
18230;SDS011;9240;49.966;21.994;2024-03-08T15:01:45;27.50;;;14.50;;
18230;SDS011;9240;49.966;21.994;2024-03-08T15:04:10;40.23;;;20.77;;
18230;SDS011;9240;49.966;21.994;2024-03-08T15:06:36;30.77;;;17.03;;
18230;SDS011;9240;49.966;21.994;2024-03-08T15:09:02;29.13;;;15.53;;
18230;SDS011;9240;49.966;21.994;2024-03-08T15:11:27;32.37;;;16.60;;
18230;SDS011;9240;49.966;21.994;2024-03-08T15:13:53;36.37;;;17.00;;
18230;SDS011;9240;49.966;21.994;2024-03-08T15:16:20;71.20;;;33.10;;
18230;SDS011;9240;49.966;21.994;2024-03-08T15:18:45;34.53;;;17.43;;
18230;SDS011;9240;49.966;21.994;2024-03-08T15:21:11;28.30;;;15.63;;
18230;SDS011;9240;49.966;21.994;2024-03-08T15:23:37;30.50;;;16.33;;
18230;SDS011;9240;49.966;21.994;2024-03-08T15:26:03;32.53;;;16.57;;
18230;SDS011;9240;49.966;21.994;2024-03-08T15:28:29;42.10;;;22.23;;
18230;SDS011;9240;49.966;21.994;2024-03-08T15:30:54;34.10;;;18.70;;
18230;SDS011;9240;49.966;21.994;2024-03-08T15:33:21;33.20;;;18.60;;
18230;SDS011;9240;49.966;21.994;2024-03-08T15:35:47;49.87;;;24.80;;
18230;SDS011;9240;49.966;21.994;2024-03-08T15:38:12;81.70;;;38.10;;
18230;SDS011;9240;49.966;21.994;2024-03-08T15:40:38;33.47;;;18.07;;
18230;SDS011;9240;49.966;21.994;2024-03-08T15:43:03;37.63;;;19.57;;
18230;SDS011;9240;49.966;21.994;2024-03-08T15:45:29;38.27;;;18.43;;
18230;SDS011;9240;49.966;21.994;2024-03-08T15:47:54;39.57;;;20.03;;
18230;SDS011;9240;49.966;21.994;2024-03-08T15:50:21;40.77;;;17.87;;
18230;SDS011;9240;49.966;21.994;2024-03-08T15:52:47;37.93;;;19.03;;
18230;SDS011;9240;49.966;21.994;2024-03-08T15:55:14;46.73;;;22.60;;
18230;SDS011;9240;49.966;21.994;2024-03-08T15:57:39;35.07;;;17.20;;
18230;SDS011;9240;49.966;21.994;2024-03-08T16:00:05;35.40;;;18.50;;
18230;SDS011;9240;49.966;21.994;2024-03-08T16:02:31;42.23;;;19.03;;
18230;SDS011;9240;49.966;21.994;2024-03-08T16:04:57;55.20;;;26.67;;
18230;SDS011;9240;49.966;21.994;2024-03-08T16:07:24;44.00;;;20.37;;
18230;SDS011;9240;49.966;21.994;2024-03-08T16:09:49;48.83;;;21.60;;
18230;SDS011;9240;49.966;21.994;2024-03-08T16:12:15;48.67;;;23.50;;
18230;SDS011;9240;49.966;21.994;2024-03-08T16:14:40;84.00;;;39.30;;
18230;SDS011;9240;49.966;21.994;2024-03-08T16:17:06;79.17;;;39.20;;
18230;SDS011;9240;49.966;21.994;2024-03-08T16:19:31;84.30;;;38.03;;
18230;SDS011;9240;49.966;21.994;2024-03-08T16:21:58;64.83;;;31.70;;
18230;SDS011;9240;49.966;21.994;2024-03-08T16:24:25;95.93;;;46.87;;
18230;SDS011;9240;49.966;21.994;2024-03-08T16:26:50;140.53;;;64.23;;
18230;SDS011;9240;49.966;21.994;2024-03-08T16:29:16;93.03;;;44.60;;
18230;SDS011;9240;49.966;21.994;2024-03-08T17:26:01;68.83;;;30.47;;
18230;SDS011;9240;49.966;21.994;2024-03-08T17:28:26;70.73;;;32.67;;
18230;SDS011;9240;49.966;21.994;2024-03-08T17:30:51;65.43;;;32.37;;
18230;SDS011;9240;49.966;21.994;2024-03-08T17:33:17;71.33;;;33.20;;
18230;SDS011;9240;49.966;21.994;2024-03-08T17:35:42;72.13;;;32.40;;
18230;SDS011;9240;49.966;21.994;2024-03-08T17:38:08;66.87;;;30.60;;
18230;SDS011;9240;49.966;21.994;2024-03-08T17:40:34;65.03;;;29.23;;
18230;SDS011;9240;49.966;21.994;2024-03-08T17:43:01;64.13;;;29.13;;
18230;SDS011;9240;49.966;21.994;2024-03-08T17:45:26;69.63;;;31.60;;
18230;SDS011;9240;49.966;21.994;2024-03-08T17:47:52;77.37;;;32.83;;